createdAt,value
2023-04-16T00:00:49.582Z,7.00
2023-04-16T00:03:21.407Z,7.40
2023-04-16T00:05:56.086Z,7.30
2023-04-16T00:08:27.851Z,7.50
2023-04-16T00:10:59.249Z,7.00
2023-04-16T00:13:30.811Z,7.10
2023-04-16T00:16:02.097Z,7.20
2023-04-16T00:18:33.640Z,7.60
2023-04-16T00:21:05.000Z,8.20
2023-04-16T00:23:36.944Z,7.30
2023-04-16T00:26:08.510Z,7.70
2023-04-16T00:28:40.299Z,7.80
2023-04-16T00:31:11.753Z,7.40
2023-04-16T00:33:43.156Z,7.90
2023-04-16T00:36:14.567Z,7.90
2023-04-16T00:38:45.972Z,7.60
2023-04-16T00:41:17.568Z,7.60
2023-04-16T00:43:48.884Z,7.90
2023-04-16T00:46:21.465Z,7.90
2023-04-16T00:48:55.409Z,8.40
2023-04-16T00:51:27.405Z,8.10
2023-04-16T00:53:59.609Z,8.30
2023-04-16T00:56:31.833Z,7.90
2023-04-16T00:59:03.248Z,8.00
2023-04-16T01:01:34.849Z,8.30
2023-04-16T01:04:07.406Z,8.30
2023-04-16T01:06:38.898Z,7.50
2023-04-16T01:09:11.457Z,8.30
2023-04-16T01:11:42.933Z,8.50
2023-04-16T01:14:14.552Z,8.00
2023-04-16T01:16:46.168Z,8.20
2023-04-16T01:19:17.608Z,6.80
2023-04-16T01:21:49.062Z,7.70
2023-04-16T01:24:20.627Z,7.40
2023-04-16T01:26:51.929Z,6.80
2023-04-16T01:29:23.167Z,7.50
2023-04-16T01:31:54.617Z,7.00
2023-04-16T01:34:25.989Z,7.70
2023-04-16T01:36:57.406Z,7.80
2023-04-16T01:39:28.860Z,7.20
2023-04-16T01:42:00.033Z,7.40
2023-04-16T01:44:31.555Z,7.60
2023-04-16T01:47:02.904Z,7.60
2023-04-16T01:49:35.141Z,7.90
2023-04-16T01:52:08.643Z,7.20
2023-04-16T01:54:40.052Z,7.00
2023-04-16T01:57:11.431Z,7.40
2023-04-16T01:59:42.912Z,7.80
2023-04-16T02:02:16.657Z,7.40
2023-04-16T02:04:48.891Z,7.20
2023-04-16T02:07:20.264Z,7.10
2023-04-16T02:09:51.752Z,8.10
2023-04-16T02:12:23.127Z,7.20
2023-04-16T02:14:54.616Z,7.20
2023-04-16T02:17:25.993Z,7.40
2023-04-16T02:19:57.553Z,7.20
2023-04-16T02:22:28.885Z,7.50
2023-04-16T02:25:00.379Z,6.70
2023-04-16T02:27:31.780Z,7.40
2023-04-16T02:30:04.607Z,7.30
2023-04-16T02:32:36.119Z,7.30
2023-04-16T02:35:08.477Z,7.90
2023-04-16T02:37:41.194Z,6.60
2023-04-16T02:40:14.753Z,7.60
2023-04-16T02:42:46.332Z,6.80
2023-04-16T02:45:18.228Z,7.60
2023-04-16T02:47:49.569Z,7.50
2023-04-16T02:50:21.475Z,7.50
2023-04-16T02:52:53.333Z,7.50
2023-04-16T02:55:24.999Z,7.30
2023-04-16T02:57:56.430Z,7.40
2023-04-16T03:00:27.937Z,7.40
2023-04-16T03:02:59.603Z,7.50
2023-04-16T03:05:31.232Z,7.90
2023-04-16T03:08:02.691Z,7.60
2023-04-16T03:10:35.299Z,8.10
2023-04-16T03:13:07.085Z,8.30
2023-04-16T03:15:38.772Z,7.70
2023-04-16T03:18:10.414Z,8.00
2023-04-16T03:20:41.756Z,7.70
2023-04-16T03:23:13.394Z,7.90
2023-04-16T03:25:47.438Z,7.80
2023-04-16T03:28:18.954Z,7.50
2023-04-16T03:30:55.388Z,8.30
2023-04-16T03:33:27.350Z,8.90
2023-04-16T03:36:01.759Z,8.80
2023-04-16T03:38:33.711Z,7.70
2023-04-16T03:41:05.387Z,8.30
2023-04-16T03:43:46.140Z,8.00
2023-04-16T03:46:29.106Z,8.60
2023-04-16T03:49:14.579Z,8.60
2023-04-16T03:51:56.760Z,8.50
2023-04-16T03:54:38.352Z,8.30
2023-04-16T03:57:17.571Z,9.00
2023-04-16T03:59:59.724Z,8.80
2023-04-16T04:02:31.654Z,9.00
2023-04-16T04:05:03.561Z,8.50
2023-04-16T04:07:35.080Z,9.00
2023-04-16T04:10:06.932Z,8.80
2023-04-16T04:12:38.326Z,9.00
2023-04-16T04:15:11.940Z,8.60
2023-04-16T04:17:43.485Z,9.20
2023-04-16T04:20:16.045Z,8.90
2023-04-16T04:22:47.341Z,9.00
2023-04-16T04:25:19.856Z,8.50
2023-04-16T04:27:51.272Z,8.60
2023-04-16T04:30:22.809Z,8.40
2023-04-16T04:32:54.154Z,9.80
2023-04-16T04:35:26.014Z,9.20
2023-04-16T04:37:57.679Z,8.90
2023-04-16T04:40:29.358Z,9.30
2023-04-16T04:43:00.801Z,9.00
2023-04-16T04:45:32.480Z,9.60
2023-04-16T04:48:04.082Z,9.50
2023-04-16T04:50:35.546Z,9.60
2023-04-16T04:53:10.482Z,9.60
2023-04-16T04:55:41.841Z,9.50
2023-04-16T04:58:13.404Z,8.90
2023-04-16T05:00:45.062Z,9.70
2023-04-16T05:03:20.836Z,10.00
2023-04-16T05:05:52.314Z,10.00
2023-04-16T05:08:23.752Z,10.40
2023-04-16T05:10:55.301Z,9.70
2023-04-16T05:13:27.588Z,9.60
2023-04-16T05:15:58.918Z,9.90
2023-04-16T05:18:30.634Z,9.10
2023-04-16T05:21:02.072Z,10.00
2023-04-16T05:23:33.952Z,9.30
2023-04-16T05:26:05.483Z,9.50
2023-04-16T05:28:37.034Z,9.30
2023-04-16T05:31:08.673Z,9.00
2023-04-16T05:33:40.761Z,8.70
2023-04-16T05:36:12.286Z,9.10
2023-04-16T05:38:43.722Z,10.10
2023-04-16T05:41:15.078Z,9.90
2023-04-16T05:43:46.619Z,10.50
2023-04-16T05:46:18.161Z,9.60
2023-04-16T05:48:49.623Z,9.40
2023-04-16T05:51:23.357Z,9.10
2023-04-16T05:53:55.005Z,10.20
2023-04-16T05:56:27.412Z,9.40
2023-04-16T05:58:59.165Z,9.40
2023-04-16T06:01:31.129Z,9.50
2023-04-16T06:04:03.908Z,9.90
2023-04-16T06:06:35.479Z,9.10
2023-04-16T06:09:07.127Z,9.80
2023-04-16T06:11:38.727Z,11.00
2023-04-16T06:14:10.160Z,10.60
2023-04-16T06:16:41.969Z,10.30
2023-04-16T06:19:13.358Z,9.70
2023-04-16T06:21:44.921Z,9.70
2023-04-16T06:24:16.353Z,10.10
2023-04-16T06:26:47.958Z,9.60
2023-04-16T06:29:21.298Z,11.50
2023-04-16T06:31:54.175Z,11.10
2023-04-16T06:34:26.313Z,9.70
2023-04-16T06:36:58.419Z,11.50
2023-04-16T06:39:30.057Z,11.20
2023-04-16T06:42:01.885Z,10.40
2023-04-16T06:44:33.389Z,10.90
2023-04-16T06:47:06.153Z,10.10
2023-04-16T06:49:37.734Z,12.30
2023-04-16T06:52:10.368Z,11.60
2023-04-16T06:54:42.295Z,11.70
2023-04-16T06:57:13.883Z,12.30
2023-04-16T06:59:45.490Z,12.10
2023-04-16T07:02:17.123Z,12.30
2023-04-16T07:04:49.375Z,11.00
2023-04-16T07:07:20.961Z,11.10
2023-04-16T07:09:52.416Z,11.70
2023-04-16T07:12:23.847Z,12.80
2023-04-16T07:14:55.193Z,11.10
2023-04-16T07:17:27.650Z,11.70
2023-04-16T07:20:03.570Z,10.70
2023-04-16T07:22:35.500Z,11.30
2023-04-16T07:25:08.714Z,10.20
2023-04-16T07:27:40.995Z,10.40
2023-04-16T07:30:14.537Z,10.60
2023-04-16T07:32:47.498Z,11.00
2023-04-16T07:35:20.857Z,10.20
2023-04-16T07:37:52.669Z,10.30
2023-04-16T07:40:24.816Z,10.20
2023-04-16T07:42:56.731Z,10.70
2023-04-16T07:45:28.446Z,10.00
2023-04-16T07:48:00.696Z,10.70
2023-04-16T07:50:32.326Z,10.10
2023-04-16T07:53:03.958Z,10.90
2023-04-16T07:55:35.932Z,10.40
2023-04-16T07:58:09.874Z,10.80
2023-04-16T08:00:42.640Z,10.90
2023-04-16T08:03:16.481Z,13.40
2023-04-16T08:05:49.446Z,12.20
2023-04-16T08:08:21.091Z,10.70
2023-04-16T08:10:56.102Z,10.70
2023-04-16T08:13:27.769Z,10.00
2023-04-16T08:15:59.325Z,11.50
2023-04-16T08:18:31.526Z,10.30
2023-04-16T08:21:02.983Z,11.10
2023-04-16T08:23:34.965Z,10.10
2023-04-16T08:26:06.456Z,9.60
2023-04-16T08:28:47.081Z,10.80
2023-04-16T08:31:20.112Z,10.90
2023-04-16T08:33:51.524Z,10.40
2023-04-16T08:36:23.120Z,11.50
2023-04-16T08:38:54.550Z,10.10
2023-04-16T08:41:29.972Z,11.10
2023-04-16T08:44:05.644Z,11.50
2023-04-16T08:46:42.256Z,10.30
2023-04-16T08:49:19.890Z,10.60
2023-04-16T08:51:54.113Z,9.30
2023-04-16T08:54:36.278Z,11.30
2023-04-16T08:57:12.083Z,10.80
2023-04-16T08:59:47.961Z,12.60
2023-04-16T09:02:20.009Z,11.60
2023-04-16T09:04:52.882Z,10.90
2023-04-16T09:07:26.156Z,11.90
2023-04-16T09:09:59.482Z,11.90
2023-04-16T09:12:31.690Z,12.00
2023-04-16T09:15:05.296Z,12.00
2023-04-16T09:17:38.509Z,11.20
2023-04-16T09:20:12.836Z,12.60
2023-04-16T09:22:45.018Z,12.60
2023-04-16T09:25:16.547Z,12.20
2023-04-16T09:27:51.089Z,13.40
2023-04-16T09:30:29.207Z,11.80
2023-04-16T09:36:14.085Z,13.20
2023-04-16T09:38:56.252Z,12.60
2023-04-16T09:41:31.554Z,12.20
2023-04-16T09:44:05.847Z,12.70
2023-04-16T09:46:42.236Z,14.90
2023-04-16T09:49:15.709Z,14.80
2023-04-16T09:51:48.825Z,14.90
2023-04-16T09:54:21.404Z,15.90
2023-04-16T09:56:53.090Z,15.30
2023-04-16T09:59:25.816Z,15.90
2023-04-16T10:02:15.886Z,15.80
2023-04-16T10:04:53.128Z,15.70
2023-04-16T10:07:29.556Z,16.80
2023-04-16T10:10:01.629Z,16.40
2023-04-16T10:12:34.150Z,15.60
2023-04-16T10:15:06.268Z,18.60
2023-04-16T10:17:38.973Z,16.00
2023-04-16T10:20:12.260Z,15.00
2023-04-16T10:22:44.154Z,14.90
2023-04-16T10:25:16.974Z,13.50
2023-04-16T10:27:49.304Z,15.50
2023-04-16T10:30:22.015Z,13.60
2023-04-16T10:32:54.079Z,13.80
2023-04-16T10:35:27.252Z,12.60
2023-04-16T10:38:21.322Z,13.30
2023-04-16T10:40:52.883Z,13.10
2023-04-16T10:43:26.833Z,13.10
2023-04-16T10:45:58.950Z,11.90
2023-04-16T10:48:46.474Z,13.20
2023-04-16T10:51:33.362Z,13.60
2023-04-16T10:54:23.192Z,15.10
2023-04-16T10:56:55.961Z,15.00
2023-04-16T10:59:31.745Z,14.80
2023-04-16T11:02:08.531Z,13.10
2023-04-16T11:04:41.269Z,10.90
2023-04-16T11:07:19.907Z,12.00
2023-04-16T11:09:59.878Z,11.20
2023-04-16T11:12:38.300Z,10.80
2023-04-16T11:15:11.804Z,10.90
2023-04-16T11:17:45.045Z,11.50
2023-04-16T11:20:22.798Z,11.20
2023-04-16T11:22:56.220Z,12.00
2023-04-16T11:25:29.961Z,12.40
2023-04-16T11:28:03.573Z,12.90
2023-04-16T11:30:36.573Z,12.60
2023-04-16T11:33:10.062Z,12.10
2023-04-16T11:35:43.747Z,12.20
2023-04-16T11:38:15.761Z,11.70
2023-04-16T11:40:51.951Z,11.20
2023-04-16T11:43:24.022Z,10.60
2023-04-16T11:46:10.255Z,10.80
2023-04-16T11:48:55.689Z,9.70
2023-04-16T11:51:27.434Z,9.60
2023-04-16T11:53:59.074Z,10.00
2023-04-16T11:56:33.179Z,9.20
2023-04-16T11:59:13.145Z,9.10
2023-04-16T12:01:48.341Z,9.20
2023-04-16T12:04:22.684Z,9.20
2023-04-16T12:07:14.072Z,9.20
2023-04-16T12:09:46.121Z,8.20
2023-04-16T12:12:32.433Z,8.40
2023-04-16T12:15:05.059Z,7.90
2023-04-16T12:17:37.814Z,7.40
2023-04-16T12:20:12.958Z,7.50
2023-04-16T12:22:48.392Z,7.40
2023-04-16T12:25:20.348Z,7.90
2023-04-16T12:27:54.306Z,8.30
2023-04-16T12:30:27.697Z,8.10
2023-04-16T12:33:17.198Z,8.00
2023-04-16T12:35:48.989Z,8.20
2023-04-16T12:38:22.813Z,8.70
2023-04-16T12:40:57.468Z,10.50
2023-04-16T12:43:29.852Z,8.50
2023-04-16T12:46:04.185Z,8.00
2023-04-16T12:51:05.679Z,7.70
2023-04-16T12:53:37.992Z,7.60
2023-04-16T12:56:09.715Z,8.20
2023-04-16T12:58:41.352Z,8.10
2023-04-16T13:01:13.100Z,8.40
2023-04-16T13:03:44.871Z,8.50
2023-04-16T13:06:17.536Z,7.60
2023-04-16T13:08:49.172Z,7.80
2023-04-16T13:11:20.699Z,7.60
2023-04-16T13:13:52.103Z,8.00
2023-04-16T13:16:23.666Z,7.40
2023-04-16T13:18:55.507Z,8.20
2023-04-16T13:21:27.515Z,8.20
2023-04-16T13:23:59.282Z,8.70
2023-04-16T13:26:30.853Z,9.00
2023-04-16T13:29:02.456Z,9.20
2023-04-16T13:31:34.111Z,9.10
2023-04-16T13:34:06.550Z,8.90
2023-04-16T13:36:38.093Z,9.60
2023-04-16T13:39:12.146Z,9.70
2023-04-16T13:41:46.250Z,9.60
2023-04-16T13:44:17.666Z,10.70
2023-04-16T13:46:50.027Z,8.80
2023-04-16T13:49:22.019Z,8.20
2023-04-16T13:51:53.498Z,7.30
2023-04-16T13:54:25.641Z,8.30
2023-04-16T13:57:02.605Z,8.40
2023-04-16T13:59:35.240Z,8.80
2023-04-16T14:02:13.349Z,10.60
2023-04-16T14:04:45.185Z,9.20
2023-04-16T14:07:17.509Z,8.30
2023-04-16T14:09:49.018Z,9.30
2023-04-16T14:12:22.498Z,9.40
2023-04-16T14:14:53.996Z,9.80
2023-04-16T14:17:25.744Z,9.00
2023-04-16T14:19:57.644Z,9.00
2023-04-16T14:22:30.751Z,7.90
2023-04-16T14:25:03.861Z,9.10
2023-04-16T14:27:36.503Z,8.80
2023-04-16T14:30:09.383Z,8.10
2023-04-16T14:32:44.578Z,7.70
2023-04-16T14:35:17.127Z,6.90
2023-04-16T14:37:49.085Z,8.20
2023-04-16T14:40:22.080Z,7.80
2023-04-16T14:42:54.055Z,8.00
2023-04-16T14:45:29.361Z,8.70
2023-04-16T14:48:01.588Z,7.80
2023-04-16T14:50:33.321Z,8.80
2023-04-16T14:53:05.399Z,9.20
2023-04-16T14:55:37.463Z,8.70
2023-04-16T14:58:09.748Z,9.10
2023-04-16T15:00:41.512Z,8.60
2023-04-16T15:03:13.284Z,7.60
2023-04-16T15:05:45.211Z,7.60
2023-04-16T15:08:17.124Z,8.50
2023-04-16T15:10:48.691Z,7.90
2023-04-16T15:13:21.805Z,7.90
2023-04-16T15:15:53.552Z,7.50
2023-04-16T15:18:29.065Z,7.40
2023-04-16T15:21:01.511Z,7.30
2023-04-16T15:23:34.896Z,7.00
2023-04-16T15:26:07.674Z,6.60
2023-04-16T15:28:39.905Z,7.20
2023-04-16T15:31:13.064Z,6.30
2023-04-16T15:33:45.505Z,6.80
2023-04-16T15:36:21.273Z,6.70
2023-04-16T15:38:53.553Z,6.40
2023-04-16T15:41:26.429Z,6.90
2023-04-16T15:43:59.956Z,6.80
2023-04-16T15:46:36.931Z,8.10
2023-04-16T15:49:10.576Z,8.20
2023-04-16T15:51:45.333Z,8.10
2023-04-16T15:54:22.852Z,7.40
2023-04-16T15:56:56.132Z,6.60
2023-04-16T15:59:29.369Z,7.50
2023-04-16T16:02:02.227Z,7.40
2023-04-16T16:04:34.652Z,7.50
2023-04-16T16:07:07.416Z,7.10
2023-04-16T16:09:40.311Z,6.60
2023-04-16T16:12:12.971Z,6.60
2023-04-16T16:14:45.052Z,7.20
2023-04-16T16:17:18.025Z,7.90
2023-04-16T16:19:50.173Z,6.90
2023-04-16T16:22:24.199Z,6.80
2023-04-16T16:24:58.900Z,7.40
2023-04-16T16:27:32.626Z,7.20
2023-04-16T16:30:10.355Z,7.00
2023-04-16T16:32:44.673Z,7.50
2023-04-16T16:35:26.197Z,6.90
2023-04-16T16:38:06.997Z,6.20
2023-04-16T16:40:49.549Z,6.90
2023-04-16T16:43:24.310Z,6.80
2023-04-16T16:46:08.492Z,7.00
2023-04-16T16:48:51.242Z,6.20
2023-04-16T16:51:24.056Z,7.00
2023-04-16T16:54:00.922Z,7.10
2023-04-16T16:56:32.873Z,7.20
2023-04-16T16:59:19.798Z,7.70
2023-04-16T17:01:52.827Z,7.40
2023-04-16T17:04:24.859Z,7.60
2023-04-16T17:06:57.032Z,7.00
2023-04-16T17:09:30.816Z,7.30
2023-04-16T17:12:05.224Z,7.70
2023-04-16T17:14:42.331Z,7.00
2023-04-16T17:17:13.879Z,7.00
2023-04-16T17:19:46.873Z,7.00
2023-04-16T17:22:19.994Z,7.30
2023-04-16T17:24:52.642Z,7.00
2023-04-16T17:27:28.599Z,7.30
2023-04-16T17:30:02.714Z,7.70
2023-04-16T17:32:35.623Z,7.60
2023-04-16T17:35:13.326Z,8.10
2023-04-16T17:37:47.384Z,7.50
2023-04-16T17:40:21.614Z,8.20
2023-04-16T17:42:54.949Z,8.30
2023-04-16T17:45:31.488Z,8.00
2023-04-16T17:48:15.942Z,8.50
2023-04-16T17:50:54.002Z,9.70
2023-04-16T17:53:27.034Z,8.90
2023-04-16T17:55:59.294Z,9.70
2023-04-16T17:58:36.099Z,9.80
2023-04-16T18:01:11.048Z,10.00
2023-04-16T18:03:56.711Z,10.40
2023-04-16T18:06:39.089Z,9.90
2023-04-16T18:09:15.343Z,10.10
2023-04-16T18:11:47.995Z,11.00
2023-04-16T18:14:22.473Z,10.50
2023-04-16T18:16:54.982Z,12.10
2023-04-16T18:19:27.301Z,10.90
2023-04-16T18:22:01.151Z,11.90
2023-04-16T18:24:36.528Z,11.00
2023-04-16T18:27:09.093Z,12.30
2023-04-16T18:29:45.338Z,11.20
2023-04-16T18:32:18.308Z,11.50
2023-04-16T18:34:50.596Z,12.20
2023-04-16T18:37:23.060Z,12.10
2023-04-16T18:43:16.337Z,12.70
2023-04-16T18:48:23.590Z,11.70
2023-04-16T18:51:01.425Z,11.30
2023-04-16T18:53:34.659Z,11.50
2023-04-16T18:56:07.820Z,11.30
2023-04-16T18:58:41.393Z,10.70
2023-04-16T19:01:14.760Z,10.70
2023-04-16T19:03:48.447Z,10.60
2023-04-16T19:06:21.216Z,12.00
2023-04-16T19:08:53.441Z,12.60
2023-04-16T19:11:29.794Z,12.00
2023-04-16T19:14:13.516Z,10.80
2023-04-16T19:16:50.309Z,9.90
2023-04-16T19:19:29.459Z,10.40
2023-04-16T19:22:02.765Z,11.10
2023-04-16T19:24:40.757Z,10.60
2023-04-16T19:27:13.988Z,11.30
2023-04-16T19:29:48.850Z,12.70
2023-04-16T19:32:21.819Z,11.40
2023-04-16T19:34:54.591Z,11.90
2023-04-16T19:37:31.227Z,11.70
2023-04-16T19:40:21.187Z,11.70
2023-04-16T19:42:53.979Z,10.80
2023-04-16T19:45:29.240Z,11.80
2023-04-16T19:48:03.483Z,11.40
2023-04-16T19:50:35.684Z,12.00
2023-04-16T19:53:08.357Z,11.70
2023-04-16T19:55:42.997Z,12.50
2023-04-16T19:58:15.457Z,11.10
2023-04-16T20:00:47.606Z,11.40
2023-04-16T20:03:22.173Z,12.00
2023-04-16T20:08:24.841Z,10.80
2023-04-16T20:10:58.855Z,10.80
2023-04-16T20:13:31.702Z,11.20
2023-04-16T20:16:28.276Z,11.30
2023-04-16T20:19:08.086Z,10.30
2023-04-16T20:21:46.451Z,10.50
2023-04-16T20:24:19.175Z,11.20
2023-04-16T20:26:57.664Z,10.70
2023-04-16T20:29:29.396Z,11.40
2023-04-16T20:32:00.880Z,10.70
2023-04-16T20:34:32.476Z,9.60
2023-04-16T20:37:05.184Z,10.70
2023-04-16T20:39:39.213Z,10.60
2023-04-16T20:42:11.837Z,11.40
2023-04-16T20:44:50.788Z,10.80
2023-04-16T20:47:22.875Z,10.30
2023-04-16T20:49:55.161Z,9.80
2023-04-16T20:52:26.626Z,10.00
2023-04-16T20:54:58.195Z,11.30
2023-04-16T20:57:32.346Z,9.70
2023-04-16T21:00:06.012Z,11.30
2023-04-16T21:02:37.901Z,11.10
2023-04-16T21:05:15.237Z,10.10
2023-04-16T21:07:46.743Z,10.70
2023-04-16T21:10:20.504Z,10.70
2023-04-16T21:12:52.030Z,11.70
2023-04-16T21:15:23.417Z,10.90
2023-04-16T21:17:56.800Z,10.60
2023-04-16T21:20:30.347Z,9.90
2023-04-16T21:23:02.798Z,11.20
2023-04-16T21:25:37.575Z,10.60
2023-04-16T21:28:09.528Z,10.00
2023-04-16T21:30:40.836Z,10.10
2023-04-16T21:33:15.008Z,10.10
2023-04-16T21:35:46.363Z,10.70
2023-04-16T21:38:17.921Z,10.70
2023-04-16T21:40:51.483Z,12.40
2023-04-16T21:43:23.018Z,10.60
2023-04-16T21:45:56.891Z,11.70
2023-04-16T21:48:28.882Z,11.80
2023-04-16T21:51:06.932Z,10.80
2023-04-16T21:53:39.280Z,10.30
2023-04-16T21:56:11.505Z,10.80
2023-04-16T21:58:43.111Z,10.60
2023-04-16T22:01:14.595Z,11.30
2023-04-16T22:03:47.625Z,10.80
2023-04-16T22:06:20.728Z,10.30
2023-04-16T22:08:53.723Z,10.40
2023-04-16T22:11:25.135Z,10.30
2023-04-16T22:13:58.117Z,10.90
2023-04-16T22:16:29.559Z,10.40
2023-04-16T22:19:01.617Z,10.70
2023-04-16T22:21:33.053Z,11.60
2023-04-16T22:24:04.803Z,11.90
2023-04-16T22:26:36.148Z,11.30
2023-04-16T22:29:07.738Z,9.70
2023-04-16T22:31:39.369Z,12.50
2023-04-16T22:34:11.145Z,11.80
2023-04-16T22:36:42.667Z,11.90
2023-04-16T22:39:14.371Z,11.70
2023-04-16T22:41:45.954Z,12.00
2023-04-16T22:44:17.255Z,12.10
2023-04-16T22:46:49.102Z,11.40
2023-04-16T22:49:20.846Z,12.20
2023-04-16T22:51:52.327Z,12.50
2023-04-16T22:54:23.652Z,12.20
2023-04-16T22:56:55.020Z,11.10
2023-04-16T22:59:28.152Z,12.50
2023-04-16T23:01:59.831Z,13.10
2023-04-16T23:04:31.374Z,13.20
2023-04-16T23:07:02.834Z,12.30
2023-04-16T23:09:34.914Z,13.20
2023-04-16T23:12:06.741Z,13.60
2023-04-16T23:14:38.259Z,11.90
2023-04-16T23:17:09.858Z,12.50
2023-04-16T23:19:41.289Z,13.20
2023-04-16T23:22:13.221Z,12.10
2023-04-16T23:24:44.592Z,12.20
2023-04-16T23:27:16.035Z,10.60
2023-04-16T23:29:47.499Z,11.00
2023-04-16T23:32:18.986Z,10.70
2023-04-16T23:34:50.652Z,10.10
2023-04-16T23:37:22.362Z,9.70
2023-04-16T23:39:53.687Z,11.30
2023-04-16T23:42:25.147Z,10.20
2023-04-16T23:44:56.763Z,10.40
2023-04-16T23:47:28.312Z,12.10
2023-04-16T23:49:59.620Z,11.00
2023-04-16T23:52:30.894Z,12.30
2023-04-16T23:55:02.425Z,12.40
2023-04-16T23:57:34.006Z,12.40
